sensor_id;sensor_type;location;lat;lon;timestamp;P1;durP1;ratioP1;P2;durP2;ratioP2
81191;SDS011;70665;47.652;-2.730;2023-07-28T00:00:58;3.60;;;1.33;;
81191;SDS011;70665;47.652;-2.730;2023-07-28T00:03:24;2.92;;;1.40;;
81191;SDS011;70665;47.652;-2.730;2023-07-28T00:05:50;4.13;;;1.48;;
81191;SDS011;70665;47.652;-2.730;2023-07-28T00:08:15;3.22;;;1.27;;
81191;SDS011;70665;47.652;-2.730;2023-07-28T00:10:41;2.80;;;1.15;;
81191;SDS011;70665;47.652;-2.730;2023-07-28T00:13:07;6.45;;;1.60;;
81191;SDS011;70665;47.652;-2.730;2023-07-28T00:15:34;2.38;;;1.27;;
81191;SDS011;70665;47.652;-2.730;2023-07-28T00:17:59;6.95;;;1.85;;
81191;SDS011;70665;47.652;-2.730;2023-07-28T00:20:26;4.03;;;1.40;;
81191;SDS011;70665;47.652;-2.730;2023-07-28T00:22:53;3.85;;;1.02;;
81191;SDS011;70665;47.652;-2.730;2023-07-28T00:25:18;5.10;;;1.42;;
81191;SDS011;70665;47.652;-2.730;2023-07-28T00:27:44;2.85;;;1.23;;
81191;SDS011;70665;47.652;-2.730;2023-07-28T00:30:10;2.92;;;0.98;;
81191;SDS011;70665;47.652;-2.730;2023-07-28T00:32:36;2.00;;;0.90;;
81191;SDS011;70665;47.652;-2.730;2023-07-28T00:35:02;2.53;;;1.33;;
81191;SDS011;70665;47.652;-2.730;2023-07-28T00:37:28;1.90;;;1.33;;
81191;SDS011;70665;47.652;-2.730;2023-07-28T00:39:54;2.13;;;0.93;;
81191;SDS011;70665;47.652;-2.730;2023-07-28T00:42:19;1.67;;;1.27;;
81191;SDS011;70665;47.652;-2.730;2023-07-28T00:44:45;1.77;;;1.00;;
81191;SDS011;70665;47.652;-2.730;2023-07-28T00:47:11;1.23;;;1.10;;
81191;SDS011;70665;47.652;-2.730;2023-07-28T00:49:37;0.90;;;0.80;;
81191;SDS011;70665;47.652;-2.730;2023-07-28T00:52:05;1.25;;;1.00;;
81191;SDS011;70665;47.652;-2.730;2023-07-28T00:54:32;0.82;;;0.70;;
81191;SDS011;70665;47.652;-2.730;2023-07-28T00:56:59;0.65;;;0.50;;
81191;SDS011;70665;47.652;-2.730;2023-07-28T00:59:26;1.05;;;0.80;;
81191;SDS011;70665;47.652;-2.730;2023-07-28T01:01:52;1.00;;;0.80;;
81191;SDS011;70665;47.652;-2.730;2023-07-28T01:04:18;0.90;;;0.80;;
81191;SDS011;70665;47.652;-2.730;2023-07-28T01:09:12;0.93;;;0.65;;
81191;SDS011;70665;47.652;-2.730;2023-07-28T01:11:53;0.60;;;0.60;;
81191;SDS011;70665;47.652;-2.730;2023-07-28T01:14:22;1.23;;;1.08;;
81191;SDS011;70665;47.652;-2.730;2023-07-28T01:16:48;2.03;;;0.82;;
81191;SDS011;70665;47.652;-2.730;2023-07-28T01:19:18;2.03;;;0.80;;
81191;SDS011;70665;47.652;-2.730;2023-07-28T01:21:45;0.85;;;0.85;;
81191;SDS011;70665;47.652;-2.730;2023-07-28T01:24:37;2.00;;;0.85;;
81191;SDS011;70665;47.652;-2.730;2023-07-28T01:27:20;1.67;;;0.90;;
81191;SDS011;70665;47.652;-2.730;2023-07-28T01:29:46;1.67;;;0.88;;
81191;SDS011;70665;47.652;-2.730;2023-07-28T01:32:13;2.75;;;0.40;;
81191;SDS011;70665;47.652;-2.730;2023-07-28T01:34:39;0.30;;;0.30;;
81191;SDS011;70665;47.652;-2.730;2023-07-28T01:37:05;0.70;;;0.70;;
81191;SDS011;70665;47.652;-2.730;2023-07-28T01:39:30;1.40;;;0.80;;
81191;SDS011;70665;47.652;-2.730;2023-07-28T01:41:56;1.98;;;0.77;;
81191;SDS011;70665;47.652;-2.730;2023-07-28T01:44:22;1.00;;;0.80;;
81191;SDS011;70665;47.652;-2.730;2023-07-28T01:46:47;0.82;;;0.80;;
81191;SDS011;70665;47.652;-2.730;2023-07-28T01:49:13;1.23;;;0.60;;
81191;SDS011;70665;47.652;-2.730;2023-07-28T01:51:38;1.25;;;0.85;;
81191;SDS011;70665;47.652;-2.730;2023-07-28T01:54:04;0.63;;;0.63;;
81191;SDS011;70665;47.652;-2.730;2023-07-28T01:56:30;0.60;;;0.60;;
81191;SDS011;70665;47.652;-2.730;2023-07-28T01:58:55;1.52;;;0.70;;
81191;SDS011;70665;47.652;-2.730;2023-07-28T02:01:21;0.65;;;0.65;;
81191;SDS011;70665;47.652;-2.730;2023-07-28T02:03:46;0.73;;;0.70;;
81191;SDS011;70665;47.652;-2.730;2023-07-28T02:06:12;2.28;;;0.90;;
81191;SDS011;70665;47.652;-2.730;2023-07-28T02:08:38;0.70;;;0.70;;
81191;SDS011;70665;47.652;-2.730;2023-07-28T02:11:03;0.63;;;0.63;;
81191;SDS011;70665;47.652;-2.730;2023-07-28T02:13:29;2.28;;;0.70;;
81191;SDS011;70665;47.652;-2.730;2023-07-28T02:15:55;1.30;;;0.63;;
81191;SDS011;70665;47.652;-2.730;2023-07-28T02:18:20;1.02;;;0.80;;
81191;SDS011;70665;47.652;-2.730;2023-07-28T02:20:49;1.13;;;0.65;;
81191;SDS011;70665;47.652;-2.730;2023-07-28T02:23:15;0.68;;;0.68;;
81191;SDS011;70665;47.652;-2.730;2023-07-28T02:25:40;0.50;;;0.43;;
81191;SDS011;70665;47.652;-2.730;2023-07-28T02:28:08;1.38;;;0.85;;
81191;SDS011;70665;47.652;-2.730;2023-07-28T02:30:34;0.77;;;0.77;;
81191;SDS011;70665;47.652;-2.730;2023-07-28T02:33:00;0.90;;;0.90;;
81191;SDS011;70665;47.652;-2.730;2023-07-28T02:35:26;0.60;;;0.60;;
81191;SDS011;70665;47.652;-2.730;2023-07-28T02:37:51;0.70;;;0.65;;
81191;SDS011;70665;47.652;-2.730;2023-07-28T02:40:17;3.80;;;0.80;;
81191;SDS011;70665;47.652;-2.730;2023-07-28T02:42:43;1.05;;;0.80;;
81191;SDS011;70665;47.652;-2.730;2023-07-28T02:45:08;1.33;;;0.80;;
81191;SDS011;70665;47.652;-2.730;2023-07-28T02:47:35;1.27;;;1.05;;
81191;SDS011;70665;47.652;-2.730;2023-07-28T02:50:01;1.02;;;0.85;;
81191;SDS011;70665;47.652;-2.730;2023-07-28T02:52:27;1.33;;;0.70;;
81191;SDS011;70665;47.652;-2.730;2023-07-28T02:54:52;1.00;;;0.88;;
81191;SDS011;70665;47.652;-2.730;2023-07-28T02:57:18;1.10;;;1.00;;
81191;SDS011;70665;47.652;-2.730;2023-07-28T02:59:44;1.45;;;1.00;;
81191;SDS011;70665;47.652;-2.730;2023-07-28T03:02:09;0.90;;;0.75;;
81191;SDS011;70665;47.652;-2.730;2023-07-28T03:04:35;2.00;;;0.95;;
81191;SDS011;70665;47.652;-2.730;2023-07-28T03:07:00;1.00;;;0.82;;
81191;SDS011;70665;47.652;-2.730;2023-07-28T03:09:26;1.52;;;0.57;;
81191;SDS011;70665;47.652;-2.730;2023-07-28T03:11:52;1.08;;;0.80;;
81191;SDS011;70665;47.652;-2.730;2023-07-28T03:14:17;2.80;;;0.90;;
81191;SDS011;70665;47.652;-2.730;2023-07-28T03:16:43;2.05;;;0.85;;
81191;SDS011;70665;47.652;-2.730;2023-07-28T03:19:09;1.35;;;0.85;;
81191;SDS011;70665;47.652;-2.730;2023-07-28T03:21:34;0.80;;;0.80;;
81191;SDS011;70665;47.652;-2.730;2023-07-28T03:24:00;1.70;;;0.88;;
81191;SDS011;70665;47.652;-2.730;2023-07-28T03:26:25;1.02;;;0.90;;
81191;SDS011;70665;47.652;-2.730;2023-07-28T03:28:51;0.88;;;0.77;;
81191;SDS011;70665;47.652;-2.730;2023-07-28T03:31:17;0.98;;;0.80;;
81191;SDS011;70665;47.652;-2.730;2023-07-28T03:33:42;0.85;;;0.80;;
81191;SDS011;70665;47.652;-2.730;2023-07-28T03:36:08;2.03;;;0.80;;
81191;SDS011;70665;47.652;-2.730;2023-07-28T03:38:33;0.95;;;0.68;;
81191;SDS011;70665;47.652;-2.730;2023-07-28T03:40:59;0.82;;;0.80;;
81191;SDS011;70665;47.652;-2.730;2023-07-28T03:43:25;1.50;;;0.95;;
81191;SDS011;70665;47.652;-2.730;2023-07-28T03:45:50;1.13;;;0.52;;
81191;SDS011;70665;47.652;-2.730;2023-07-28T03:48:16;2.50;;;0.77;;
81191;SDS011;70665;47.652;-2.730;2023-07-28T03:50:42;0.50;;;0.40;;
81191;SDS011;70665;47.652;-2.730;2023-07-28T03:53:07;2.00;;;0.90;;
81191;SDS011;70665;47.652;-2.730;2023-07-28T03:55:33;1.27;;;0.75;;
81191;SDS011;70665;47.652;-2.730;2023-07-28T03:57:59;0.80;;;0.80;;
81191;SDS011;70665;47.652;-2.730;2023-07-28T04:00:25;1.60;;;1.15;;
81191;SDS011;70665;47.652;-2.730;2023-07-28T04:02:50;0.90;;;0.90;;
81191;SDS011;70665;47.652;-2.730;2023-07-28T04:05:16;1.20;;;1.00;;
81191;SDS011;70665;47.652;-2.730;2023-07-28T04:07:42;0.85;;;0.85;;
81191;SDS011;70665;47.652;-2.730;2023-07-28T04:10:07;1.98;;;1.10;;
81191;SDS011;70665;47.652;-2.730;2023-07-28T04:12:33;1.50;;;1.40;;
81191;SDS011;70665;47.652;-2.730;2023-07-28T04:14:59;1.55;;;1.45;;
81191;SDS011;70665;47.652;-2.730;2023-07-28T04:17:24;1.33;;;1.20;;
81191;SDS011;70665;47.652;-2.730;2023-07-28T04:19:50;2.10;;;1.17;;
81191;SDS011;70665;47.652;-2.730;2023-07-28T04:22:15;1.17;;;1.05;;
81191;SDS011;70665;47.652;-2.730;2023-07-28T04:24:46;1.60;;;1.20;;
81191;SDS011;70665;47.652;-2.730;2023-07-28T04:27:13;2.33;;;1.20;;
81191;SDS011;70665;47.652;-2.730;2023-07-28T04:29:39;1.30;;;1.05;;
81191;SDS011;70665;47.652;-2.730;2023-07-28T04:32:04;1.45;;;1.30;;
81191;SDS011;70665;47.652;-2.730;2023-07-28T04:34:32;1.50;;;1.10;;
81191;SDS011;70665;47.652;-2.730;2023-07-28T04:36:59;2.20;;;1.15;;
81191;SDS011;70665;47.652;-2.730;2023-07-28T04:39:24;1.67;;;1.00;;
81191;SDS011;70665;47.652;-2.730;2023-07-28T04:41:50;2.55;;;1.10;;
81191;SDS011;70665;47.652;-2.730;2023-07-28T04:44:16;2.08;;;1.20;;
81191;SDS011;70665;47.652;-2.730;2023-07-28T04:46:42;3.30;;;1.00;;
81191;SDS011;70665;47.652;-2.730;2023-07-28T04:49:08;2.00;;;1.20;;
81191;SDS011;70665;47.652;-2.730;2023-07-28T04:51:33;1.42;;;1.00;;
81191;SDS011;70665;47.652;-2.730;2023-07-28T04:53:59;2.47;;;1.00;;
81191;SDS011;70665;47.652;-2.730;2023-07-28T04:56:25;2.20;;;1.10;;
81191;SDS011;70665;47.652;-2.730;2023-07-28T04:58:50;1.55;;;0.88;;
81191;SDS011;70665;47.652;-2.730;2023-07-28T05:01:16;1.10;;;1.00;;
81191;SDS011;70665;47.652;-2.730;2023-07-28T05:03:41;1.58;;;1.08;;
81191;SDS011;70665;47.652;-2.730;2023-07-28T05:06:07;1.75;;;1.10;;
81191;SDS011;70665;47.652;-2.730;2023-07-28T05:08:33;2.38;;;0.88;;
81191;SDS011;70665;47.652;-2.730;2023-07-28T05:10:58;3.33;;;1.23;;
81191;SDS011;70665;47.652;-2.730;2023-07-28T05:13:24;1.83;;;1.10;;
81191;SDS011;70665;47.652;-2.730;2023-07-28T05:15:50;1.33;;;1.00;;
81191;SDS011;70665;47.652;-2.730;2023-07-28T05:18:15;3.97;;;1.50;;
81191;SDS011;70665;47.652;-2.730;2023-07-28T05:20:41;1.40;;;1.30;;
81191;SDS011;70665;47.652;-2.730;2023-07-28T05:23:06;2.92;;;1.45;;
81191;SDS011;70665;47.652;-2.730;2023-07-28T05:25:32;2.13;;;1.80;;
81191;SDS011;70665;47.652;-2.730;2023-07-28T05:27:58;1.85;;;1.10;;
81191;SDS011;70665;47.652;-2.730;2023-07-28T05:30:23;3.30;;;1.77;;
81191;SDS011;70665;47.652;-2.730;2023-07-28T05:32:49;1.58;;;1.15;;
81191;SDS011;70665;47.652;-2.730;2023-07-28T05:35:15;2.08;;;1.45;;
81191;SDS011;70665;47.652;-2.730;2023-07-28T05:37:41;2.50;;;1.65;;
81191;SDS011;70665;47.652;-2.730;2023-07-28T05:40:07;2.63;;;2.00;;
81191;SDS011;70665;47.652;-2.730;2023-07-28T05:42:33;1.95;;;1.40;;
81191;SDS011;70665;47.652;-2.730;2023-07-28T05:44:59;3.20;;;1.70;;
81191;SDS011;70665;47.652;-2.730;2023-07-28T05:47:25;2.47;;;1.70;;
81191;SDS011;70665;47.652;-2.730;2023-07-28T05:49:51;2.28;;;1.70;;
81191;SDS011;70665;47.652;-2.730;2023-07-28T05:52:18;3.30;;;1.92;;
81191;SDS011;70665;47.652;-2.730;2023-07-28T05:54:44;2.97;;;1.83;;
81191;SDS011;70665;47.652;-2.730;2023-07-28T05:57:10;2.75;;;1.70;;
81191;SDS011;70665;47.652;-2.730;2023-07-28T05:59:36;3.00;;;2.00;;
81191;SDS011;70665;47.652;-2.730;2023-07-28T06:02:01;2.17;;;1.60;;
81191;SDS011;70665;47.652;-2.730;2023-07-28T06:04:27;3.15;;;1.70;;
81191;SDS011;70665;47.652;-2.730;2023-07-28T06:06:53;2.70;;;1.40;;
81191;SDS011;70665;47.652;-2.730;2023-07-28T06:09:18;2.85;;;1.80;;
81191;SDS011;70665;47.652;-2.730;2023-07-28T06:11:44;3.00;;;2.08;;
81191;SDS011;70665;47.652;-2.730;2023-07-28T06:14:10;4.60;;;1.67;;
81191;SDS011;70665;47.652;-2.730;2023-07-28T06:16:35;2.08;;;1.52;;
81191;SDS011;70665;47.652;-2.730;2023-07-28T06:19:01;2.38;;;1.58;;
81191;SDS011;70665;47.652;-2.730;2023-07-28T06:21:27;2.83;;;1.58;;
81191;SDS011;70665;47.652;-2.730;2023-07-28T06:23:53;3.80;;;1.88;;
81191;SDS011;70665;47.652;-2.730;2023-07-28T06:26:18;2.25;;;1.50;;
81191;SDS011;70665;47.652;-2.730;2023-07-28T06:28:44;2.00;;;1.45;;
81191;SDS011;70665;47.652;-2.730;2023-07-28T06:31:10;1.90;;;1.45;;
81191;SDS011;70665;47.652;-2.730;2023-07-28T06:33:36;2.08;;;1.20;;
81191;SDS011;70665;47.652;-2.730;2023-07-28T06:36:02;3.53;;;1.30;;
81191;SDS011;70665;47.652;-2.730;2023-07-28T06:38:28;1.63;;;1.20;;
81191;SDS011;70665;47.652;-2.730;2023-07-28T06:40:53;3.85;;;1.30;;
81191;SDS011;70665;47.652;-2.730;2023-07-28T06:43:20;2.90;;;1.50;;
81191;SDS011;70665;47.652;-2.730;2023-07-28T06:45:46;2.35;;;1.48;;
81191;SDS011;70665;47.652;-2.730;2023-07-28T06:48:11;2.88;;;1.75;;
81191;SDS011;70665;47.652;-2.730;2023-07-28T06:50:37;4.47;;;1.60;;
81191;SDS011;70665;47.652;-2.730;2023-07-28T06:53:03;3.80;;;1.60;;
81191;SDS011;70665;47.652;-2.730;2023-07-28T06:55:29;2.83;;;1.60;;
81191;SDS011;70665;47.652;-2.730;2023-07-28T06:57:55;4.25;;;1.70;;
81191;SDS011;70665;47.652;-2.730;2023-07-28T07:00:21;3.85;;;1.70;;
81191;SDS011;70665;47.652;-2.730;2023-07-28T07:02:46;2.47;;;1.60;;
81191;SDS011;70665;47.652;-2.730;2023-07-28T07:05:12;2.08;;;1.52;;
81191;SDS011;70665;47.652;-2.730;2023-07-28T07:07:38;2.05;;;1.67;;
81191;SDS011;70665;47.652;-2.730;2023-07-28T07:10:04;1.67;;;1.30;;
81191;SDS011;70665;47.652;-2.730;2023-07-28T07:12:31;2.03;;;1.52;;
81191;SDS011;70665;47.652;-2.730;2023-07-28T07:14:57;2.80;;;1.70;;
81191;SDS011;70665;47.652;-2.730;2023-07-28T07:17:22;1.77;;;1.30;;
81191;SDS011;70665;47.652;-2.730;2023-07-28T07:19:48;3.42;;;1.45;;
81191;SDS011;70665;47.652;-2.730;2023-07-28T07:22:14;3.30;;;1.50;;
81191;SDS011;70665;47.652;-2.730;2023-07-28T07:24:39;3.08;;;1.65;;
81191;SDS011;70665;47.652;-2.730;2023-07-28T07:27:05;2.40;;;1.40;;
81191;SDS011;70665;47.652;-2.730;2023-07-28T07:29:31;3.58;;;1.35;;
81191;SDS011;70665;47.652;-2.730;2023-07-28T07:31:57;3.17;;;1.40;;
81191;SDS011;70665;47.652;-2.730;2023-07-28T07:34:22;2.60;;;1.48;;
81191;SDS011;70665;47.652;-2.730;2023-07-28T07:36:49;2.75;;;1.80;;
81191;SDS011;70665;47.652;-2.730;2023-07-28T07:39:15;2.28;;;1.70;;
81191;SDS011;70665;47.652;-2.730;2023-07-28T07:41:40;2.28;;;1.50;;
81191;SDS011;70665;47.652;-2.730;2023-07-28T07:44:06;3.53;;;1.60;;
81191;SDS011;70665;47.652;-2.730;2023-07-28T07:46:32;2.75;;;1.58;;
81191;SDS011;70665;47.652;-2.730;2023-07-28T07:48:57;1.95;;;1.35;;
81191;SDS011;70665;47.652;-2.730;2023-07-28T07:51:23;4.03;;;1.40;;
81191;SDS011;70665;47.652;-2.730;2023-07-28T07:53:49;2.67;;;1.50;;
81191;SDS011;70665;47.652;-2.730;2023-07-28T07:56:14;1.85;;;1.08;;
81191;SDS011;70665;47.652;-2.730;2023-07-28T07:58:40;2.53;;;1.38;;
81191;SDS011;70665;47.652;-2.730;2023-07-28T08:01:06;1.77;;;1.00;;
81191;SDS011;70665;47.652;-2.730;2023-07-28T08:03:31;1.23;;;0.82;;
81191;SDS011;70665;47.652;-2.730;2023-07-28T08:05:57;1.35;;;1.05;;
81191;SDS011;70665;47.652;-2.730;2023-07-28T08:08:23;1.38;;;1.25;;
81191;SDS011;70665;47.652;-2.730;2023-07-28T08:10:49;2.35;;;1.00;;
81191;SDS011;70665;47.652;-2.730;2023-07-28T08:13:15;3.70;;;1.00;;
81191;SDS011;70665;47.652;-2.730;2023-07-28T08:15:44;1.48;;;0.93;;
81191;SDS011;70665;47.652;-2.730;2023-07-28T08:18:11;1.17;;;0.90;;
81191;SDS011;70665;47.652;-2.730;2023-07-28T08:20:40;1.15;;;1.05;;
81191;SDS011;70665;47.652;-2.730;2023-07-28T08:23:06;0.98;;;0.95;;
81191;SDS011;70665;47.652;-2.730;2023-07-28T08:25:32;1.52;;;0.90;;
81191;SDS011;70665;47.652;-2.730;2023-07-28T08:27:59;1.52;;;1.08;;
81191;SDS011;70665;47.652;-2.730;2023-07-28T08:30:25;1.63;;;1.00;;
81191;SDS011;70665;47.652;-2.730;2023-07-28T08:32:51;1.33;;;1.10;;
81191;SDS011;70665;47.652;-2.730;2023-07-28T08:35:17;2.38;;;1.00;;
81191;SDS011;70665;47.652;-2.730;2023-07-28T08:37:43;1.38;;;0.93;;
81191;SDS011;70665;47.652;-2.730;2023-07-28T08:40:09;2.25;;;1.20;;
81191;SDS011;70665;47.652;-2.730;2023-07-28T08:42:37;1.50;;;1.20;;
81191;SDS011;70665;47.652;-2.730;2023-07-28T08:45:04;2.90;;;1.25;;
81191;SDS011;70665;47.652;-2.730;2023-07-28T08:47:30;2.35;;;1.02;;
81191;SDS011;70665;47.652;-2.730;2023-07-28T08:49:56;3.03;;;1.38;;
81191;SDS011;70665;47.652;-2.730;2023-07-28T08:52:22;1.35;;;1.10;;
81191;SDS011;70665;47.652;-2.730;2023-07-28T08:54:49;2.60;;;1.13;;
81191;SDS011;70665;47.652;-2.730;2023-07-28T08:57:15;1.83;;;1.13;;
81191;SDS011;70665;47.652;-2.730;2023-07-28T08:59:40;2.08;;;1.05;;
81191;SDS011;70665;47.652;-2.730;2023-07-28T09:02:12;2.45;;;1.17;;
81191;SDS011;70665;47.652;-2.730;2023-07-28T09:04:43;1.73;;;0.93;;
81191;SDS011;70665;47.652;-2.730;2023-07-28T09:07:13;3.90;;;1.17;;
81191;SDS011;70665;47.652;-2.730;2023-07-28T09:09:39;2.85;;;1.02;;
81191;SDS011;70665;47.652;-2.730;2023-07-28T09:12:06;2.30;;;1.23;;
81191;SDS011;70665;47.652;-2.730;2023-07-28T09:14:34;1.77;;;1.30;;
81191;SDS011;70665;47.652;-2.730;2023-07-28T09:19:34;2.13;;;1.27;;
81191;SDS011;70665;47.652;-2.730;2023-07-28T09:22:00;1.65;;;1.55;;
81191;SDS011;70665;47.652;-2.730;2023-07-28T09:24:30;3.13;;;1.23;;
81191;SDS011;70665;47.652;-2.730;2023-07-28T09:26:57;1.45;;;1.08;;
81191;SDS011;70665;47.652;-2.730;2023-07-28T09:29:24;1.17;;;1.08;;
81191;SDS011;70665;47.652;-2.730;2023-07-28T09:31:53;2.38;;;1.00;;
81191;SDS011;70665;47.652;-2.730;2023-07-28T09:34:27;1.65;;;1.17;;
81191;SDS011;70665;47.652;-2.730;2023-07-28T09:36:54;1.52;;;1.20;;
81191;SDS011;70665;47.652;-2.730;2023-07-28T09:39:20;1.35;;;1.02;;
81191;SDS011;70665;47.652;-2.730;2023-07-28T09:41:47;1.27;;;1.17;;
81191;SDS011;70665;47.652;-2.730;2023-07-28T09:44:13;2.05;;;1.10;;
81191;SDS011;70665;47.652;-2.730;2023-07-28T09:46:50;0.90;;;0.90;;
81191;SDS011;70665;47.652;-2.730;2023-07-28T09:49:21;1.42;;;0.95;;
81191;SDS011;70665;47.652;-2.730;2023-07-28T09:51:53;1.65;;;1.13;;
81191;SDS011;70665;47.652;-2.730;2023-07-28T09:54:25;1.85;;;1.17;;
81191;SDS011;70665;47.652;-2.730;2023-07-28T09:56:58;1.63;;;1.10;;
81191;SDS011;70665;47.652;-2.730;2023-07-28T09:59:28;2.80;;;1.00;;
81191;SDS011;70665;47.652;-2.730;2023-07-28T10:01:57;1.40;;;1.10;;
81191;SDS011;70665;47.652;-2.730;2023-07-28T10:04:24;1.55;;;1.10;;
81191;SDS011;70665;47.652;-2.730;2023-07-28T10:06:51;1.42;;;1.20;;
81191;SDS011;70665;47.652;-2.730;2023-07-28T10:09:30;3.17;;;1.67;;
81191;SDS011;70665;47.652;-2.730;2023-07-28T10:11:58;1.90;;;1.00;;
81191;SDS011;70665;47.652;-2.730;2023-07-28T10:14:26;4.35;;;1.40;;
81191;SDS011;70665;47.652;-2.730;2023-07-28T10:16:58;3.08;;;1.13;;
81191;SDS011;70665;47.652;-2.730;2023-07-28T10:19:24;3.42;;;1.58;;
81191;SDS011;70665;47.652;-2.730;2023-07-28T10:21:58;2.67;;;1.15;;
81191;SDS011;70665;47.652;-2.730;2023-07-28T10:30:02;3.05;;;1.20;;
81191;SDS011;70665;47.652;-2.730;2023-07-28T10:32:36;2.50;;;1.25;;
81191;SDS011;70665;47.652;-2.730;2023-07-28T10:35:06;3.35;;;1.30;;
81191;SDS011;70665;47.652;-2.730;2023-07-28T10:37:43;1.95;;;1.10;;
81191;SDS011;70665;47.652;-2.730;2023-07-28T10:43:00;2.63;;;1.35;;
81191;SDS011;70665;47.652;-2.730;2023-07-28T10:45:28;3.38;;;1.25;;
81191;SDS011;70665;47.652;-2.730;2023-07-28T10:47:56;2.80;;;1.10;;
81191;SDS011;70665;47.652;-2.730;2023-07-28T10:50:25;3.47;;;1.05;;
81191;SDS011;70665;47.652;-2.730;2023-07-28T10:52:55;2.28;;;1.15;;
81191;SDS011;70665;47.652;-2.730;2023-07-28T10:55:22;2.33;;;1.38;;
81191;SDS011;70665;47.652;-2.730;2023-07-28T10:57:50;1.50;;;1.25;;
81191;SDS011;70665;47.652;-2.730;2023-07-28T11:00:18;1.77;;;1.15;;
81191;SDS011;70665;47.652;-2.730;2023-07-28T11:02:52;2.97;;;1.80;;
81191;SDS011;70665;47.652;-2.730;2023-07-28T11:05:19;1.73;;;1.05;;
81191;SDS011;70665;47.652;-2.730;2023-07-28T11:07:51;2.42;;;1.08;;
81191;SDS011;70665;47.652;-2.730;2023-07-28T11:10:18;2.63;;;1.40;;
81191;SDS011;70665;47.652;-2.730;2023-07-28T11:12:46;2.78;;;0.90;;
81191;SDS011;70665;47.652;-2.730;2023-07-28T11:15:14;1.40;;;1.15;;
81191;SDS011;70665;47.652;-2.730;2023-07-28T11:17:41;3.53;;;1.33;;
81191;SDS011;70665;47.652;-2.730;2023-07-28T11:22:56;2.42;;;1.20;;
81191;SDS011;70665;47.652;-2.730;2023-07-28T11:25:23;1.75;;;1.10;;
81191;SDS011;70665;47.652;-2.730;2023-07-28T11:27:50;1.77;;;1.15;;
81191;SDS011;70665;47.652;-2.730;2023-07-28T11:30:16;1.92;;;1.30;;
81191;SDS011;70665;47.652;-2.730;2023-07-28T11:32:43;3.30;;;1.80;;
81191;SDS011;70665;47.652;-2.730;2023-07-28T11:35:11;3.33;;;1.40;;
81191;SDS011;70665;47.652;-2.730;2023-07-28T11:37:38;3.78;;;1.10;;
81191;SDS011;70665;47.652;-2.730;2023-07-28T11:40:05;2.70;;;1.27;;
81191;SDS011;70665;47.652;-2.730;2023-07-28T11:42:33;2.42;;;1.10;;
81191;SDS011;70665;47.652;-2.730;2023-07-28T11:45:02;2.50;;;1.30;;
81191;SDS011;70665;47.652;-2.730;2023-07-28T11:47:28;1.92;;;1.10;;
81191;SDS011;70665;47.652;-2.730;2023-07-28T11:49:55;1.77;;;1.00;;
81191;SDS011;70665;47.652;-2.730;2023-07-28T11:52:23;3.17;;;1.30;;
81191;SDS011;70665;47.652;-2.730;2023-07-28T11:54:59;1.73;;;1.20;;
81191;SDS011;70665;47.652;-2.730;2023-07-28T11:57:26;2.60;;;1.20;;
81191;SDS011;70665;47.652;-2.730;2023-07-28T11:59:53;3.08;;;1.27;;
81191;SDS011;70665;47.652;-2.730;2023-07-28T12:02:25;1.65;;;1.25;;
81191;SDS011;70665;47.652;-2.730;2023-07-28T12:04:52;2.78;;;1.17;;
81191;SDS011;70665;47.652;-2.730;2023-07-28T12:07:19;1.42;;;0.90;;
81191;SDS011;70665;47.652;-2.730;2023-07-28T12:09:52;1.77;;;1.05;;
81191;SDS011;70665;47.652;-2.730;2023-07-28T12:12:25;1.38;;;1.00;;
81191;SDS011;70665;47.652;-2.730;2023-07-28T12:14:52;0.98;;;0.98;;
81191;SDS011;70665;47.652;-2.730;2023-07-28T12:17:18;1.10;;;0.63;;
81191;SDS011;70665;47.652;-2.730;2023-07-28T12:19:58;2.13;;;0.90;;
81191;SDS011;70665;47.652;-2.730;2023-07-28T12:22:38;2.38;;;1.08;;
81191;SDS011;70665;47.652;-2.730;2023-07-28T12:25:04;0.88;;;0.88;;
81191;SDS011;70665;47.652;-2.730;2023-07-28T12:27:30;0.90;;;0.90;;
81191;SDS011;70665;47.652;-2.730;2023-07-28T12:29:56;1.25;;;0.98;;
81191;SDS011;70665;47.652;-2.730;2023-07-28T12:32:22;0.90;;;0.90;;
81191;SDS011;70665;47.652;-2.730;2023-07-28T12:34:48;3.15;;;1.00;;
81191;SDS011;70665;47.652;-2.730;2023-07-28T12:37:14;1.20;;;1.10;;
81191;SDS011;70665;47.652;-2.730;2023-07-28T12:39:40;1.30;;;0.77;;
81191;SDS011;70665;47.652;-2.730;2023-07-28T12:42:06;2.63;;;0.90;;
81191;SDS011;70665;47.652;-2.730;2023-07-28T12:44:34;0.85;;;0.80;;
81191;SDS011;70665;47.652;-2.730;2023-07-28T12:47:00;1.10;;;0.93;;
81191;SDS011;70665;47.652;-2.730;2023-07-28T12:49:26;2.33;;;0.70;;
81191;SDS011;70665;47.652;-2.730;2023-07-28T12:51:54;1.50;;;0.77;;
81191;SDS011;70665;47.652;-2.730;2023-07-28T12:54:31;1.67;;;0.85;;
81191;SDS011;70665;47.652;-2.730;2023-07-28T12:56:58;1.50;;;0.70;;
81191;SDS011;70665;47.652;-2.730;2023-07-28T12:59:23;0.80;;;0.70;;
81191;SDS011;70665;47.652;-2.730;2023-07-28T13:01:49;1.42;;;0.77;;
81191;SDS011;70665;47.652;-2.730;2023-07-28T13:04:15;0.80;;;0.80;;
81191;SDS011;70665;47.652;-2.730;2023-07-28T13:06:40;1.35;;;0.88;;
81191;SDS011;70665;47.652;-2.730;2023-07-28T13:09:06;0.80;;;0.80;;
81191;SDS011;70665;47.652;-2.730;2023-07-28T13:11:33;1.42;;;0.65;;
81191;SDS011;70665;47.652;-2.730;2023-07-28T13:13:59;1.70;;;1.00;;
81191;SDS011;70665;47.652;-2.730;2023-07-28T13:16:25;0.70;;;0.70;;
81191;SDS011;70665;47.652;-2.730;2023-07-28T13:18:51;1.63;;;1.08;;
81191;SDS011;70665;47.652;-2.730;2023-07-28T13:21:18;1.08;;;0.88;;
81191;SDS011;70665;47.652;-2.730;2023-07-28T13:23:43;2.88;;;0.80;;
81191;SDS011;70665;47.652;-2.730;2023-07-28T13:26:09;1.05;;;0.90;;
81191;SDS011;70665;47.652;-2.730;2023-07-28T13:28:35;1.67;;;0.93;;
81191;SDS011;70665;47.652;-2.730;2023-07-28T13:31:03;2.00;;;0.85;;
81191;SDS011;70665;47.652;-2.730;2023-07-28T13:33:29;1.40;;;1.00;;
81191;SDS011;70665;47.652;-2.730;2023-07-28T13:35:56;0.90;;;0.80;;
81191;SDS011;70665;47.652;-2.730;2023-07-28T13:38:22;0.95;;;0.80;;
81191;SDS011;70665;47.652;-2.730;2023-07-28T13:40:48;0.95;;;0.80;;
81191;SDS011;70665;47.652;-2.730;2023-07-28T13:43:13;1.10;;;0.77;;
81191;SDS011;70665;47.652;-2.730;2023-07-28T13:45:39;1.08;;;1.08;;
81191;SDS011;70665;47.652;-2.730;2023-07-28T13:48:04;0.68;;;0.60;;
81191;SDS011;70665;47.652;-2.730;2023-07-28T13:50:30;0.80;;;0.80;;
81191;SDS011;70665;47.652;-2.730;2023-07-28T13:52:56;1.40;;;0.60;;
81191;SDS011;70665;47.652;-2.730;2023-07-28T13:55:21;0.75;;;0.75;;
81191;SDS011;70665;47.652;-2.730;2023-07-28T13:57:47;0.90;;;0.60;;
81191;SDS011;70665;47.652;-2.730;2023-07-28T14:00:13;0.77;;;0.73;;
81191;SDS011;70665;47.652;-2.730;2023-07-28T14:02:39;0.85;;;0.85;;
81191;SDS011;70665;47.652;-2.730;2023-07-28T14:05:05;1.13;;;0.80;;
81191;SDS011;70665;47.652;-2.730;2023-07-28T14:07:32;0.80;;;0.80;;
81191;SDS011;70665;47.652;-2.730;2023-07-28T14:09:59;0.60;;;0.60;;
81191;SDS011;70665;47.652;-2.730;2023-07-28T14:12:24;0.60;;;0.60;;
81191;SDS011;70665;47.652;-2.730;2023-07-28T14:14:50;0.55;;;0.55;;
81191;SDS011;70665;47.652;-2.730;2023-07-28T14:17:16;0.93;;;0.65;;
81191;SDS011;70665;47.652;-2.730;2023-07-28T14:19:41;0.70;;;0.70;;
81191;SDS011;70665;47.652;-2.730;2023-07-28T14:22:07;1.38;;;0.75;;
81191;SDS011;70665;47.652;-2.730;2023-07-28T14:24:34;1.60;;;0.82;;
81191;SDS011;70665;47.652;-2.730;2023-07-28T14:26:59;0.70;;;0.60;;
81191;SDS011;70665;47.652;-2.730;2023-07-28T14:29:25;1.00;;;0.90;;
81191;SDS011;70665;47.652;-2.730;2023-07-28T14:31:51;1.27;;;0.98;;
81191;SDS011;70665;47.652;-2.730;2023-07-28T14:34:17;1.00;;;0.80;;
81191;SDS011;70665;47.652;-2.730;2023-07-28T14:36:43;1.20;;;0.70;;
81191;SDS011;70665;47.652;-2.730;2023-07-28T14:39:08;0.80;;;0.80;;
81191;SDS011;70665;47.652;-2.730;2023-07-28T14:41:34;0.80;;;0.80;;
81191;SDS011;70665;47.652;-2.730;2023-07-28T14:44:01;0.90;;;0.88;;
81191;SDS011;70665;47.652;-2.730;2023-07-28T14:46:26;2.83;;;1.02;;